Marco Island, FL

08:09 PM EDT pas Agustus 29, 2014 (GMT -0400)
KFLMARCO2 | Change Station
CLOSE
Current Station
Personal Weather Stations
Location: Marco Island, FL
Elevation: 10 ft
Nearby Weather Stations

Elev 10 ft 25.93 °N, 81.71 °W | Updated 4 minutes ago

Clear
Padhang
78.7 °F
Feels Like 82 °F
N
0.0
Angin Variable Angin from Wetan

Dina Iki
High -- | Low -- °F
--% Chance of Precip.
Yesterday
High -- | Low -- °F
Precip. -- ning
7:05 AM 7:49 PM
Waxing Crescent, 17% visible
Tekanan 30.04 ning
Jarak Tingali 10.0 mil
Mega Padhang
Indeks Panas 82 °F
Titik Embun 72 °F
Kelembaban 79%
Rainfall 0.03 ning
Snow Depth Not available.
UV 0.0 out of 12
Pollen 4.70 out of 12
Air Quality Not available.
Flu Activity Not available.
METAR KMKY 292355Z AUTO 03005KT 10SM CLR 25/22 A3004 RMK AO1 60001 10350 20240 52010

More Conditions Fewer Conditions

Tekanan 30.04 ning
Jarak Tingali 10.0 mil
Mega Padhang
Indeks Panas 82 °F
Titik Embun 72 °F
Kelembaban 79%
Rainfall 0.03 ning
Snow Depth Not available.
UV 0.0 out of 12
Pollen 4.70 out of 12
Air Quality Not available.
Flu Activity Not available.
METAR KMKY 292355Z AUTO 03005KT 10SM CLR 25/22 A3004 RMK AO1 60001 10350 20240 52010

More Conditions Fewer Conditions

10-Day Weather Forecast

Almanac

Astronomy

Aug. 29, 2014 Rise Set
Actual Time 7:05 AM EDT 7:49 PM EDT
Civil Twilight 6:42 AM EDT 8:12 PM EDT
Nautical Twilight 6:14 AM EDT 8:40 PM EDT
Astronomical Twilight 5:46 AM EDT 9:08 PM EDT
Wulan 10:28 AM EDT (8/29) 10:14 PM EDT (8/29)
Length Of Visible Light 13h 30m
Length of Day
12h 43m
Tomorrow will be 1m 27s shorter.
Waxing Crescent, 17% of the Moon is Illuminated
Dina Iki
Waxing Crescent
Sep 2
First Quarter
Sep 8
Full
Sep 15
Last Quarter
Sep 24
New

Today's Extremes

State Highs State Lows

Community

WunderPhotos

Upload Photos

1,748,379 photos uploaded!

Nearby

Snow Depth

Station Depth Elevation
No new snow has been reported.

Earthquake Activity

Kutho Distance Mag. Time & Date
No recent earthquake activity has been reported nearby.
Minimum magnitude displayed is 2.5.

Coastal Water Temperatures

Panggonan Suhu
No Stations Reporting

Nearby Weather Stations